Etusivu
METAR-TAF:

METAR-TAF

Lentoasemat :

Ghadamés, Libya

Leveyspiiri: 30-08N, Pituuspiiri: 009-30E, korkeus merenpinnasta: 346 m

METAR: puuttuu

Aika: 04:47 (02:47 UTC)

Sääennuste

Tämä raportti tehtiin 21 tuntia ja 47 minuuttia sitten, kello 05.00 UTC
Ennuste voimassa 03. päivästä klo 06 UTC - 04. päivään klo 06 UTC
Tuuli 15 kn pohjoisen/luoteesta
Näkyvyys: 8000 m

TAF: HLTD 030500Z 0306/0406 34015KT 8000 NSC

Säähavainnot ja -ennusteet yli 4000 lentoasemalta (METAR- ja TAF-raportit).

Käytössä olevat sääasemat on merkitty karttaan keltaisilla ja punaisilla pisteillä.

Aseta hiiri pisteen päälle nähdäksesi sääaseman nimen.

Klikkaa sitten nähdäksesi säähavainnot ja -ennusteet.

Kartan vaihtaminen: klikkaa mustalla rastilla varustettuja vihreitä pisteitä, niin voit zoomata sisään; viivalla varustettua vihreää pistettä, niin voit zoomata ulos tai vihreitä nuolia, niin pääset viereisille kartoille.


METAR-TAF: